sensor_id;sensor_type;location;lat;lon;timestamp;temperature;humidity
20288;DHT22;10303;51.960;8.372;2023-08-08T00:01:12;16.40;99.90
20288;DHT22;10303;51.960;8.372;2023-08-08T00:03:37;16.40;99.90
20288;DHT22;10303;51.960;8.372;2023-08-08T00:06:03;16.40;99.90
20288;DHT22;10303;51.960;8.372;2023-08-08T00:08:29;16.40;99.90
20288;DHT22;10303;51.960;8.372;2023-08-08T00:10:55;16.40;99.90
20288;DHT22;10303;51.960;8.372;2023-08-08T00:13:22;16.40;99.90
20288;DHT22;10303;51.960;8.372;2023-08-08T00:15:48;16.40;99.90
20288;DHT22;10303;51.960;8.372;2023-08-08T00:18:17;16.40;99.90
20288;DHT22;10303;51.960;8.372;2023-08-08T00:20:43;16.40;99.90
20288;DHT22;10303;51.960;8.372;2023-08-08T00:23:09;16.40;99.90
20288;DHT22;10303;51.960;8.372;2023-08-08T00:25:36;16.40;99.90
20288;DHT22;10303;51.960;8.372;2023-08-08T00:28:03;16.40;99.90
20288;DHT22;10303;51.960;8.372;2023-08-08T00:30:29;16.40;99.90
20288;DHT22;10303;51.960;8.372;2023-08-08T00:32:55;16.40;99.90
20288;DHT22;10303;51.960;8.372;2023-08-08T00:35:22;16.40;99.90
20288;DHT22;10303;51.960;8.372;2023-08-08T00:37:48;16.40;99.90
20288;DHT22;10303;51.960;8.372;2023-08-08T00:40:14;16.40;99.90
20288;DHT22;10303;51.960;8.372;2023-08-08T00:42:40;16.50;99.90
20288;DHT22;10303;51.960;8.372;2023-08-08T00:45:07;16.50;99.90
20288;DHT22;10303;51.960;8.372;2023-08-08T00:47:35;16.50;99.90
20288;DHT22;10303;51.960;8.372;2023-08-08T00:50:02;16.50;99.90
20288;DHT22;10303;51.960;8.372;2023-08-08T00:52:29;16.60;99.90
20288;DHT22;10303;51.960;8.372;2023-08-08T00:54:56;16.60;99.90
20288;DHT22;10303;51.960;8.372;2023-08-08T00:57:22;16.60;99.90
20288;DHT22;10303;51.960;8.372;2023-08-08T00:59:51;16.70;99.90
20288;DHT22;10303;51.960;8.372;2023-08-08T01:02:17;16.70;99.90
20288;DHT22;10303;51.960;8.372;2023-08-08T01:04:43;16.70;99.90
20288;DHT22;10303;51.960;8.372;2023-08-08T01:07:20;16.70;99.90
20288;DHT22;10303;51.960;8.372;2023-08-08T01:10:41;16.70;99.90
20288;DHT22;10303;51.960;8.372;2023-08-08T01:13:10;16.80;99.90
20288;DHT22;10303;51.960;8.372;2023-08-08T01:15:42;16.80;99.90
20288;DHT22;10303;51.960;8.372;2023-08-08T01:18:10;16.80;99.90
20288;DHT22;10303;51.960;8.372;2023-08-08T01:20:37;16.90;99.90
20288;DHT22;10303;51.960;8.372;2023-08-08T01:26:27;16.90;99.90
20288;DHT22;10303;51.960;8.372;2023-08-08T01:28:54;16.90;99.90
20288;DHT22;10303;51.960;8.372;2023-08-08T01:31:20;17.00;99.90
20288;DHT22;10303;51.960;8.372;2023-08-08T01:33:47;17.00;99.90
20288;DHT22;10303;51.960;8.372;2023-08-08T01:36:30;17.00;99.90
20288;DHT22;10303;51.960;8.372;2023-08-08T01:39:01;17.00;99.90
20288;DHT22;10303;51.960;8.372;2023-08-08T01:41:34;17.10;99.90
20288;DHT22;10303;51.960;8.372;2023-08-08T01:44:03;17.10;99.90
20288;DHT22;10303;51.960;8.372;2023-08-08T01:46:30;17.10;99.90
20288;DHT22;10303;51.960;8.372;2023-08-08T01:48:58;17.10;99.90
20288;DHT22;10303;51.960;8.372;2023-08-08T01:51:26;17.10;99.90
20288;DHT22;10303;51.960;8.372;2023-08-08T01:53:53;17.10;99.90
20288;DHT22;10303;51.960;8.372;2023-08-08T01:56:19;17.20;99.90
20288;DHT22;10303;51.960;8.372;2023-08-08T01:58:45;17.20;99.90
20288;DHT22;10303;51.960;8.372;2023-08-08T02:01:11;17.10;99.90
20288;DHT22;10303;51.960;8.372;2023-08-08T02:03:37;17.10;99.90
20288;DHT22;10303;51.960;8.372;2023-08-08T02:06:03;17.10;99.90
20288;DHT22;10303;51.960;8.372;2023-08-08T02:08:29;17.00;99.90
20288;DHT22;10303;51.960;8.372;2023-08-08T02:10:55;17.00;99.90
20288;DHT22;10303;51.960;8.372;2023-08-08T02:13:21;16.90;99.90
20288;DHT22;10303;51.960;8.372;2023-08-08T02:15:48;16.90;99.90
20288;DHT22;10303;51.960;8.372;2023-08-08T02:18:14;17.00;99.90
20288;DHT22;10303;51.960;8.372;2023-08-08T02:20:40;17.00;99.90
20288;DHT22;10303;51.960;8.372;2023-08-08T02:23:06;17.00;99.90
20288;DHT22;10303;51.960;8.372;2023-08-08T02:25:32;17.00;99.90
20288;DHT22;10303;51.960;8.372;2023-08-08T02:27:58;17.00;99.90
20288;DHT22;10303;51.960;8.372;2023-08-08T02:30:24;16.90;99.90
20288;DHT22;10303;51.960;8.372;2023-08-08T02:32:50;17.00;99.90
20288;DHT22;10303;51.960;8.372;2023-08-08T02:35:17;17.00;99.90
20288;DHT22;10303;51.960;8.372;2023-08-08T02:37:43;17.00;99.90
20288;DHT22;10303;51.960;8.372;2023-08-08T02:40:09;17.00;99.90
20288;DHT22;10303;51.960;8.372;2023-08-08T02:42:36;17.00;99.90
20288;DHT22;10303;51.960;8.372;2023-08-08T02:45:02;16.90;99.90
20288;DHT22;10303;51.960;8.372;2023-08-08T02:47:28;16.90;99.90
20288;DHT22;10303;51.960;8.372;2023-08-08T02:49:54;16.90;99.90
20288;DHT22;10303;51.960;8.372;2023-08-08T02:52:20;16.90;99.90
20288;DHT22;10303;51.960;8.372;2023-08-08T02:54:46;16.80;99.90
20288;DHT22;10303;51.960;8.372;2023-08-08T02:57:13;16.80;99.90
20288;DHT22;10303;51.960;8.372;2023-08-08T02:59:40;16.80;99.90
20288;DHT22;10303;51.960;8.372;2023-08-08T03:02:06;16.80;99.90
20288;DHT22;10303;51.960;8.372;2023-08-08T03:04:34;16.70;99.90
20288;DHT22;10303;51.960;8.372;2023-08-08T03:07:02;16.70;99.90
20288;DHT22;10303;51.960;8.372;2023-08-08T03:09:32;16.70;99.90
20288;DHT22;10303;51.960;8.372;2023-08-08T03:11:58;16.70;99.90
20288;DHT22;10303;51.960;8.372;2023-08-08T03:14:24;16.70;99.90
20288;DHT22;10303;51.960;8.372;2023-08-08T03:16:51;16.70;99.90
20288;DHT22;10303;51.960;8.372;2023-08-08T03:19:17;16.70;99.90
20288;DHT22;10303;51.960;8.372;2023-08-08T03:21:43;16.80;99.90
20288;DHT22;10303;51.960;8.372;2023-08-08T03:24:09;16.70;99.90
20288;DHT22;10303;51.960;8.372;2023-08-08T03:26:35;16.80;99.90
20288;DHT22;10303;51.960;8.372;2023-08-08T03:29:01;16.70;99.90
20288;DHT22;10303;51.960;8.372;2023-08-08T03:31:37;16.80;99.90
20288;DHT22;10303;51.960;8.372;2023-08-08T03:34:04;16.80;99.90
20288;DHT22;10303;51.960;8.372;2023-08-08T03:36:31;16.80;99.90
20288;DHT22;10303;51.960;8.372;2023-08-08T03:38:57;16.80;99.90
20288;DHT22;10303;51.960;8.372;2023-08-08T03:41:23;16.80;99.90
20288;DHT22;10303;51.960;8.372;2023-08-08T03:43:49;16.80;99.90
20288;DHT22;10303;51.960;8.372;2023-08-08T03:46:17;16.80;99.90
20288;DHT22;10303;51.960;8.372;2023-08-08T03:48:44;16.80;99.90
20288;DHT22;10303;51.960;8.372;2023-08-08T03:51:10;16.80;99.90
20288;DHT22;10303;51.960;8.372;2023-08-08T03:53:37;16.80;99.90
20288;DHT22;10303;51.960;8.372;2023-08-08T03:56:03;16.80;99.90
20288;DHT22;10303;51.960;8.372;2023-08-08T03:58:30;16.80;99.90
20288;DHT22;10303;51.960;8.372;2023-08-08T04:00:56;16.80;99.90
20288;DHT22;10303;51.960;8.372;2023-08-08T04:03:22;16.90;99.90
20288;DHT22;10303;51.960;8.372;2023-08-08T04:05:48;16.90;99.90
20288;DHT22;10303;51.960;8.372;2023-08-08T04:08:14;16.90;99.90
20288;DHT22;10303;51.960;8.372;2023-08-08T04:10:41;16.90;99.90
20288;DHT22;10303;51.960;8.372;2023-08-08T04:13:09;16.90;99.90
20288;DHT22;10303;51.960;8.372;2023-08-08T04:15:35;17.00;99.90
20288;DHT22;10303;51.960;8.372;2023-08-08T04:18:01;17.00;99.90
20288;DHT22;10303;51.960;8.372;2023-08-08T04:20:27;17.00;99.90
20288;DHT22;10303;51.960;8.372;2023-08-08T04:22:53;17.00;99.90
20288;DHT22;10303;51.960;8.372;2023-08-08T04:25:19;17.00;99.90
20288;DHT22;10303;51.960;8.372;2023-08-08T04:27:46;16.90;99.90
20288;DHT22;10303;51.960;8.372;2023-08-08T04:30:13;17.00;99.90
20288;DHT22;10303;51.960;8.372;2023-08-08T04:32:39;17.00;99.90
20288;DHT22;10303;51.960;8.372;2023-08-08T04:35:05;17.00;99.90
20288;DHT22;10303;51.960;8.372;2023-08-08T04:37:32;17.00;99.90
20288;DHT22;10303;51.960;8.372;2023-08-08T04:39:58;17.10;99.90
20288;DHT22;10303;51.960;8.372;2023-08-08T04:42:24;17.10;99.90
20288;DHT22;10303;51.960;8.372;2023-08-08T04:44:50;17.10;99.90
20288;DHT22;10303;51.960;8.372;2023-08-08T04:47:16;17.10;99.90
20288;DHT22;10303;51.960;8.372;2023-08-08T04:49:42;17.10;99.90
20288;DHT22;10303;51.960;8.372;2023-08-08T04:52:08;17.10;99.90
20288;DHT22;10303;51.960;8.372;2023-08-08T04:54:33;17.10;99.90
20288;DHT22;10303;51.960;8.372;2023-08-08T04:56:59;17.20;99.90
20288;DHT22;10303;51.960;8.372;2023-08-08T04:59:25;17.20;99.90
20288;DHT22;10303;51.960;8.372;2023-08-08T05:01:51;17.20;99.90
20288;DHT22;10303;51.960;8.372;2023-08-08T05:04:17;17.20;99.90
20288;DHT22;10303;51.960;8.372;2023-08-08T05:06:45;17.20;99.90
20288;DHT22;10303;51.960;8.372;2023-08-08T05:09:11;17.30;99.90
20288;DHT22;10303;51.960;8.372;2023-08-08T05:11:37;17.30;99.90
20288;DHT22;10303;51.960;8.372;2023-08-08T05:14:03;17.20;99.90
20288;DHT22;10303;51.960;8.372;2023-08-08T05:16:29;17.20;99.90
20288;DHT22;10303;51.960;8.372;2023-08-08T05:18:55;17.30;99.90
20288;DHT22;10303;51.960;8.372;2023-08-08T05:21:21;17.30;99.90
20288;DHT22;10303;51.960;8.372;2023-08-08T05:23:48;17.30;99.90
20288;DHT22;10303;51.960;8.372;2023-08-08T05:26:15;17.30;99.90
20288;DHT22;10303;51.960;8.372;2023-08-08T05:28:41;17.30;99.90
20288;DHT22;10303;51.960;8.372;2023-08-08T05:31:07;17.20;99.90
20288;DHT22;10303;51.960;8.372;2023-08-08T05:33:33;17.30;99.90
20288;DHT22;10303;51.960;8.372;2023-08-08T05:35:59;17.30;99.90
20288;DHT22;10303;51.960;8.372;2023-08-08T05:38:25;17.30;99.90
20288;DHT22;10303;51.960;8.372;2023-08-08T05:40:51;17.30;99.90
20288;DHT22;10303;51.960;8.372;2023-08-08T05:43:17;17.30;99.90
20288;DHT22;10303;51.960;8.372;2023-08-08T05:45:44;17.30;99.90
20288;DHT22;10303;51.960;8.372;2023-08-08T05:48:11;17.30;99.90
20288;DHT22;10303;51.960;8.372;2023-08-08T05:50:40;17.30;99.90
20288;DHT22;10303;51.960;8.372;2023-08-08T05:53:07;17.30;99.90
20288;DHT22;10303;51.960;8.372;2023-08-08T05:55:33;17.30;99.90
20288;DHT22;10303;51.960;8.372;2023-08-08T05:57:59;17.40;99.90
20288;DHT22;10303;51.960;8.372;2023-08-08T06:00:25;17.30;99.90
20288;DHT22;10303;51.960;8.372;2023-08-08T06:02:51;17.40;99.90
20288;DHT22;10303;51.960;8.372;2023-08-08T06:05:17;17.40;99.90
20288;DHT22;10303;51.960;8.372;2023-08-08T06:07:47;17.40;99.90
20288;DHT22;10303;51.960;8.372;2023-08-08T06:10:12;17.40;99.90
20288;DHT22;10303;51.960;8.372;2023-08-08T06:12:38;17.40;99.90
20288;DHT22;10303;51.960;8.372;2023-08-08T06:15:05;17.50;99.90
20288;DHT22;10303;51.960;8.372;2023-08-08T06:17:32;17.50;99.90
20288;DHT22;10303;51.960;8.372;2023-08-08T06:19:58;17.50;99.90
20288;DHT22;10303;51.960;8.372;2023-08-08T06:22:24;17.50;99.90
20288;DHT22;10303;51.960;8.372;2023-08-08T06:24:50;17.50;99.90
20288;DHT22;10303;51.960;8.372;2023-08-08T06:27:17;17.60;99.90
20288;DHT22;10303;51.960;8.372;2023-08-08T06:29:43;17.70;99.90
20288;DHT22;10303;51.960;8.372;2023-08-08T06:32:09;17.70;99.90
20288;DHT22;10303;51.960;8.372;2023-08-08T06:34:35;17.70;99.90
20288;DHT22;10303;51.960;8.372;2023-08-08T06:37:01;17.70;99.90
20288;DHT22;10303;51.960;8.372;2023-08-08T06:39:27;17.70;99.90
20288;DHT22;10303;51.960;8.372;2023-08-08T06:41:53;17.70;99.90
20288;DHT22;10303;51.960;8.372;2023-08-08T06:44:32;17.70;99.90
20288;DHT22;10303;51.960;8.372;2023-08-08T06:46:59;17.80;99.90
20288;DHT22;10303;51.960;8.372;2023-08-08T06:49:25;17.80;99.90
20288;DHT22;10303;51.960;8.372;2023-08-08T06:51:51;17.70;99.90
20288;DHT22;10303;51.960;8.372;2023-08-08T06:54:17;17.70;99.90
20288;DHT22;10303;51.960;8.372;2023-08-08T06:56:43;17.70;99.90
20288;DHT22;10303;51.960;8.372;2023-08-08T06:59:09;17.70;99.90
20288;DHT22;10303;51.960;8.372;2023-08-08T07:01:35;17.60;99.90
20288;DHT22;10303;51.960;8.372;2023-08-08T07:04:01;17.60;99.90
20288;DHT22;10303;51.960;8.372;2023-08-08T07:06:27;17.70;99.90
20288;DHT22;10303;51.960;8.372;2023-08-08T07:08:53;17.80;99.90
20288;DHT22;10303;51.960;8.372;2023-08-08T07:11:19;17.90;99.90
20288;DHT22;10303;51.960;8.372;2023-08-08T07:13:46;18.00;99.90
20288;DHT22;10303;51.960;8.372;2023-08-08T07:16:12;17.90;99.90
20288;DHT22;10303;51.960;8.372;2023-08-08T07:18:38;17.90;99.90
20288;DHT22;10303;51.960;8.372;2023-08-08T07:21:04;18.00;99.90
20288;DHT22;10303;51.960;8.372;2023-08-08T07:23:31;18.10;99.90
20288;DHT22;10303;51.960;8.372;2023-08-08T07:25:57;18.10;99.90
20288;DHT22;10303;51.960;8.372;2023-08-08T07:28:23;18.20;99.90
20288;DHT22;10303;51.960;8.372;2023-08-08T07:30:49;18.20;99.90
20288;DHT22;10303;51.960;8.372;2023-08-08T07:33:15;18.20;99.90
20288;DHT22;10303;51.960;8.372;2023-08-08T07:35:41;18.20;99.90
20288;DHT22;10303;51.960;8.372;2023-08-08T07:38:07;18.30;99.90
20288;DHT22;10303;51.960;8.372;2023-08-08T07:40:33;18.40;99.90
20288;DHT22;10303;51.960;8.372;2023-08-08T07:42:59;18.40;99.90
20288;DHT22;10303;51.960;8.372;2023-08-08T07:45:25;18.40;99.90
20288;DHT22;10303;51.960;8.372;2023-08-08T07:47:51;18.40;99.90
20288;DHT22;10303;51.960;8.372;2023-08-08T07:50:17;18.40;99.90
20288;DHT22;10303;51.960;8.372;2023-08-08T07:52:44;18.50;99.90
20288;DHT22;10303;51.960;8.372;2023-08-08T07:55:10;18.50;99.90
20288;DHT22;10303;51.960;8.372;2023-08-08T07:57:36;18.50;99.90
20288;DHT22;10303;51.960;8.372;2023-08-08T08:00:03;18.60;99.90
20288;DHT22;10303;51.960;8.372;2023-08-08T08:02:41;18.60;99.90
20288;DHT22;10303;51.960;8.372;2023-08-08T08:05:08;18.60;99.90
20288;DHT22;10303;51.960;8.372;2023-08-08T08:07:35;18.60;99.90
20288;DHT22;10303;51.960;8.372;2023-08-08T08:10:08;18.70;99.90
20288;DHT22;10303;51.960;8.372;2023-08-08T08:12:36;18.70;99.90
20288;DHT22;10303;51.960;8.372;2023-08-08T08:15:02;18.70;99.90
20288;DHT22;10303;51.960;8.372;2023-08-08T08:17:29;18.70;99.90
20288;DHT22;10303;51.960;8.372;2023-08-08T08:19:56;18.70;99.90
20288;DHT22;10303;51.960;8.372;2023-08-08T08:22:22;18.70;99.90
20288;DHT22;10303;51.960;8.372;2023-08-08T08:24:48;18.80;99.90
20288;DHT22;10303;51.960;8.372;2023-08-08T08:27:14;18.80;99.90
20288;DHT22;10303;51.960;8.372;2023-08-08T08:29:40;18.80;99.90
20288;DHT22;10303;51.960;8.372;2023-08-08T08:32:06;18.80;99.90
20288;DHT22;10303;51.960;8.372;2023-08-08T08:34:32;18.80;99.90
20288;DHT22;10303;51.960;8.372;2023-08-08T08:36:58;18.90;99.90
20288;DHT22;10303;51.960;8.372;2023-08-08T08:39:24;18.90;99.90
20288;DHT22;10303;51.960;8.372;2023-08-08T08:41:59;19.00;99.90
20288;DHT22;10303;51.960;8.372;2023-08-08T08:44:31;19.00;99.90
20288;DHT22;10303;51.960;8.372;2023-08-08T08:47:02;19.10;99.90
20288;DHT22;10303;51.960;8.372;2023-08-08T08:49:30;19.10;99.90
20288;DHT22;10303;51.960;8.372;2023-08-08T08:51:58;19.20;99.90
20288;DHT22;10303;51.960;8.372;2023-08-08T08:54:27;19.10;99.90
20288;DHT22;10303;51.960;8.372;2023-08-08T08:56:55;19.20;99.90
20288;DHT22;10303;51.960;8.372;2023-08-08T08:59:23;19.20;99.90
20288;DHT22;10303;51.960;8.372;2023-08-08T09:01:50;19.20;99.90
20288;DHT22;10303;51.960;8.372;2023-08-08T09:04:19;19.20;99.90
20288;DHT22;10303;51.960;8.372;2023-08-08T09:06:48;19.20;99.90
20288;DHT22;10303;51.960;8.372;2023-08-08T09:09:15;19.20;99.90
20288;DHT22;10303;51.960;8.372;2023-08-08T09:11:49;19.20;99.90
20288;DHT22;10303;51.960;8.372;2023-08-08T09:14:21;19.30;99.90
20288;DHT22;10303;51.960;8.372;2023-08-08T09:16:49;19.10;99.90
20288;DHT22;10303;51.960;8.372;2023-08-08T09:19:17;19.10;99.90
20288;DHT22;10303;51.960;8.372;2023-08-08T09:21:50;19.20;99.90
20288;DHT22;10303;51.960;8.372;2023-08-08T09:24:20;19.30;99.90
20288;DHT22;10303;51.960;8.372;2023-08-08T09:26:47;19.30;99.90
20288;DHT22;10303;51.960;8.372;2023-08-08T09:29:14;19.40;99.90
20288;DHT22;10303;51.960;8.372;2023-08-08T09:31:41;19.40;99.90
20288;DHT22;10303;51.960;8.372;2023-08-08T09:34:10;19.40;99.90
20288;DHT22;10303;51.960;8.372;2023-08-08T09:36:36;19.50;99.90
20288;DHT22;10303;51.960;8.372;2023-08-08T09:39:02;19.60;99.90
20288;DHT22;10303;51.960;8.372;2023-08-08T09:41:28;19.70;99.90
20288;DHT22;10303;51.960;8.372;2023-08-08T09:43:55;19.80;99.90
20288;DHT22;10303;51.960;8.372;2023-08-08T09:46:22;19.90;99.90
20288;DHT22;10303;51.960;8.372;2023-08-08T09:48:49;20.00;99.90
20288;DHT22;10303;51.960;8.372;2023-08-08T09:51:16;19.90;99.90
20288;DHT22;10303;51.960;8.372;2023-08-08T09:53:42;20.00;99.90
20288;DHT22;10303;51.960;8.372;2023-08-08T09:56:09;20.00;99.90
20288;DHT22;10303;51.960;8.372;2023-08-08T09:58:36;19.90;99.90
20288;DHT22;10303;51.960;8.372;2023-08-08T10:01:02;20.10;99.90
20288;DHT22;10303;51.960;8.372;2023-08-08T10:03:31;19.70;99.90
20288;DHT22;10303;51.960;8.372;2023-08-08T10:05:58;19.70;99.90
20288;DHT22;10303;51.960;8.372;2023-08-08T10:08:24;19.60;99.90
20288;DHT22;10303;51.960;8.372;2023-08-08T10:10:50;19.40;99.90
20288;DHT22;10303;51.960;8.372;2023-08-08T10:13:22;19.60;99.90
20288;DHT22;10303;51.960;8.372;2023-08-08T10:15:50;19.80;99.90
20288;DHT22;10303;51.960;8.372;2023-08-08T10:18:17;19.70;99.90
20288;DHT22;10303;51.960;8.372;2023-08-08T10:20:47;19.70;99.90
20288;DHT22;10303;51.960;8.372;2023-08-08T10:23:18;19.90;99.90
20288;DHT22;10303;51.960;8.372;2023-08-08T10:25:46;20.00;99.90
20288;DHT22;10303;51.960;8.372;2023-08-08T10:28:17;20.20;99.90
20288;DHT22;10303;51.960;8.372;2023-08-08T10:33:24;20.30;99.90
20288;DHT22;10303;51.960;8.372;2023-08-08T10:36:05;20.40;99.90
20288;DHT22;10303;51.960;8.372;2023-08-08T10:38:53;20.70;99.90
20288;DHT22;10303;51.960;8.372;2023-08-08T10:41:26;21.10;99.90
20288;DHT22;10303;51.960;8.372;2023-08-08T10:43:54;21.40;99.90
20288;DHT22;10303;51.960;8.372;2023-08-08T10:46:27;21.70;99.90
20288;DHT22;10303;51.960;8.372;2023-08-08T10:48:57;21.80;99.90
20288;DHT22;10303;51.960;8.372;2023-08-08T10:51:42;21.60;99.90
20288;DHT22;10303;51.960;8.372;2023-08-08T10:54:16;21.50;99.90
20288;DHT22;10303;51.960;8.372;2023-08-08T10:56:56;21.70;99.90
20288;DHT22;10303;51.960;8.372;2023-08-08T10:59:37;21.80;99.90
20288;DHT22;10303;51.960;8.372;2023-08-08T11:02:04;22.00;99.90
20288;DHT22;10303;51.960;8.372;2023-08-08T11:04:30;22.00;99.90
20288;DHT22;10303;51.960;8.372;2023-08-08T11:06:58;21.90;99.90
20288;DHT22;10303;51.960;8.372;2023-08-08T11:09:24;21.90;99.90
20288;DHT22;10303;51.960;8.372;2023-08-08T11:11:52;21.50;99.90
20288;DHT22;10303;51.960;8.372;2023-08-08T11:14:20;21.40;99.90
20288;DHT22;10303;51.960;8.372;2023-08-08T11:16:49;21.30;99.90
20288;DHT22;10303;51.960;8.372;2023-08-08T11:19:16;21.30;99.90
20288;DHT22;10303;51.960;8.372;2023-08-08T11:21:44;21.20;99.90
20288;DHT22;10303;51.960;8.372;2023-08-08T11:24:12;21.20;99.90
20288;DHT22;10303;51.960;8.372;2023-08-08T11:26:41;21.40;99.90
20288;DHT22;10303;51.960;8.372;2023-08-08T11:29:09;21.20;99.90
20288;DHT22;10303;51.960;8.372;2023-08-08T11:31:35;21.20;99.90
20288;DHT22;10303;51.960;8.372;2023-08-08T11:34:02;21.30;99.90
20288;DHT22;10303;51.960;8.372;2023-08-08T11:36:31;21.20;99.90
20288;DHT22;10303;51.960;8.372;2023-08-08T11:39:04;21.20;99.90
20288;DHT22;10303;51.960;8.372;2023-08-08T11:41:36;21.20;99.90
20288;DHT22;10303;51.960;8.372;2023-08-08T11:44:04;20.80;99.90
20288;DHT22;10303;51.960;8.372;2023-08-08T11:46:31;20.70;99.90
20288;DHT22;10303;51.960;8.372;2023-08-08T11:49:06;20.40;99.90
20288;DHT22;10303;51.960;8.372;2023-08-08T11:51:33;20.50;99.90
20288;DHT22;10303;51.960;8.372;2023-08-08T11:54:01;20.30;99.90
20288;DHT22;10303;51.960;8.372;2023-08-08T11:56:35;20.30;99.90
20288;DHT22;10303;51.960;8.372;2023-08-08T11:59:02;20.20;99.90
20288;DHT22;10303;51.960;8.372;2023-08-08T12:01:30;20.30;99.90
20288;DHT22;10303;51.960;8.372;2023-08-08T12:03:58;20.20;99.90
20288;DHT22;10303;51.960;8.372;2023-08-08T12:06:37;20.10;99.90
20288;DHT22;10303;51.960;8.372;2023-08-08T12:09:11;20.20;99.90
20288;DHT22;10303;51.960;8.372;2023-08-08T12:11:41;20.20;99.90
20288;DHT22;10303;51.960;8.372;2023-08-08T12:14:08;20.30;99.90
20288;DHT22;10303;51.960;8.372;2023-08-08T12:16:38;20.50;99.90
20288;DHT22;10303;51.960;8.372;2023-08-08T12:19:07;20.50;99.90
20288;DHT22;10303;51.960;8.372;2023-08-08T12:21:36;20.70;99.90
20288;DHT22;10303;51.960;8.372;2023-08-08T12:24:03;20.80;99.90
20288;DHT22;10303;51.960;8.372;2023-08-08T12:26:29;20.90;99.90
20288;DHT22;10303;51.960;8.372;2023-08-08T12:28:55;20.80;99.90
20288;DHT22;10303;51.960;8.372;2023-08-08T12:31:21;21.00;99.90
20288;DHT22;10303;51.960;8.372;2023-08-08T12:33:47;21.10;99.90
20288;DHT22;10303;51.960;8.372;2023-08-08T12:36:14;21.40;99.90
20288;DHT22;10303;51.960;8.372;2023-08-08T12:38:40;21.50;99.90
20288;DHT22;10303;51.960;8.372;2023-08-08T12:41:06;21.60;99.90
20288;DHT22;10303;51.960;8.372;2023-08-08T12:43:32;21.70;99.90
20288;DHT22;10303;51.960;8.372;2023-08-08T12:46:00;21.80;99.90
20288;DHT22;10303;51.960;8.372;2023-08-08T12:48:25;21.80;99.90
20288;DHT22;10303;51.960;8.372;2023-08-08T12:50:51;21.50;99.90
20288;DHT22;10303;51.960;8.372;2023-08-08T12:53:18;21.70;99.90
20288;DHT22;10303;51.960;8.372;2023-08-08T12:55:44;21.90;99.90
20288;DHT22;10303;51.960;8.372;2023-08-08T12:58:11;21.80;99.90
20288;DHT22;10303;51.960;8.372;2023-08-08T13:00:37;21.90;99.90
20288;DHT22;10303;51.960;8.372;2023-08-08T13:03:04;21.70;99.90
20288;DHT22;10303;51.960;8.372;2023-08-08T13:05:30;21.90;99.90
20288;DHT22;10303;51.960;8.372;2023-08-08T13:07:56;21.90;99.90
20288;DHT22;10303;51.960;8.372;2023-08-08T13:10:22;22.10;99.90
20288;DHT22;10303;51.960;8.372;2023-08-08T13:12:48;22.10;99.80
20288;DHT22;10303;51.960;8.372;2023-08-08T13:15:14;21.90;98.40
20288;DHT22;10303;51.960;8.372;2023-08-08T13:17:40;21.70;99.70
20288;DHT22;10303;51.960;8.372;2023-08-08T13:20:07;21.80;99.90
20288;DHT22;10303;51.960;8.372;2023-08-08T13:22:33;21.70;98.60
20288;DHT22;10303;51.960;8.372;2023-08-08T13:24:59;21.70;99.90
20288;DHT22;10303;51.960;8.372;2023-08-08T13:27:26;21.90;99.90
20288;DHT22;10303;51.960;8.372;2023-08-08T13:29:52;21.80;99.90
20288;DHT22;10303;51.960;8.372;2023-08-08T13:32:18;21.50;99.90
20288;DHT22;10303;51.960;8.372;2023-08-08T13:34:44;21.60;99.90
20288;DHT22;10303;51.960;8.372;2023-08-08T13:37:10;21.80;99.90
20288;DHT22;10303;51.960;8.372;2023-08-08T13:39:36;21.90;99.90
20288;DHT22;10303;51.960;8.372;2023-08-08T13:42:02;21.90;99.90
20288;DHT22;10303;51.960;8.372;2023-08-08T13:44:29;22.00;99.90
20288;DHT22;10303;51.960;8.372;2023-08-08T13:46:55;21.60;99.90
20288;DHT22;10303;51.960;8.372;2023-08-08T13:49:24;21.70;99.90
20288;DHT22;10303;51.960;8.372;2023-08-08T13:51:54;21.60;99.90
20288;DHT22;10303;51.960;8.372;2023-08-08T13:54:20;21.60;99.90
20288;DHT22;10303;51.960;8.372;2023-08-08T13:56:47;21.80;99.90
20288;DHT22;10303;51.960;8.372;2023-08-08T13:59:13;21.80;99.90
20288;DHT22;10303;51.960;8.372;2023-08-08T14:01:40;21.70;99.90
20288;DHT22;10303;51.960;8.372;2023-08-08T14:04:06;21.40;99.90
20288;DHT22;10303;51.960;8.372;2023-08-08T14:06:32;21.40;99.90
20288;DHT22;10303;51.960;8.372;2023-08-08T14:08:59;21.20;99.90
20288;DHT22;10303;51.960;8.372;2023-08-08T14:11:25;21.20;99.90
20288;DHT22;10303;51.960;8.372;2023-08-08T14:13:51;21.20;99.90
20288;DHT22;10303;51.960;8.372;2023-08-08T14:16:18;21.30;99.90
20288;DHT22;10303;51.960;8.372;2023-08-08T14:18:44;21.50;99.90
20288;DHT22;10303;51.960;8.372;2023-08-08T14:21:10;21.60;99.90
20288;DHT22;10303;51.960;8.372;2023-08-08T14:23:36;21.80;99.90
20288;DHT22;10303;51.960;8.372;2023-08-08T14:26:02;21.90;99.90
20288;DHT22;10303;51.960;8.372;2023-08-08T14:28:28;21.90;99.90
20288;DHT22;10303;51.960;8.372;2023-08-08T14:30:54;21.90;99.90
20288;DHT22;10303;51.960;8.372;2023-08-08T14:33:19;22.00;99.90
20288;DHT22;10303;51.960;8.372;2023-08-08T14:35:46;22.00;99.90
20288;DHT22;10303;51.960;8.372;2023-08-08T14:38:12;21.90;99.90
20288;DHT22;10303;51.960;8.372;2023-08-08T14:40:38;21.90;99.90
20288;DHT22;10303;51.960;8.372;2023-08-08T14:43:04;21.80;99.90
20288;DHT22;10303;51.960;8.372;2023-08-08T14:45:36;21.80;99.90
20288;DHT22;10303;51.960;8.372;2023-08-08T14:48:04;21.60;99.90
20288;DHT22;10303;51.960;8.372;2023-08-08T14:50:32;21.60;99.90
20288;DHT22;10303;51.960;8.372;2023-08-08T14:52:58;21.60;99.90
20288;DHT22;10303;51.960;8.372;2023-08-08T14:55:24;21.80;99.90
20288;DHT22;10303;51.960;8.372;2023-08-08T14:57:52;21.80;99.90
20288;DHT22;10303;51.960;8.372;2023-08-08T15:00:19;21.70;99.90
20288;DHT22;10303;51.960;8.372;2023-08-08T15:02:45;21.80;99.60
20288;DHT22;10303;51.960;8.372;2023-08-08T15:05:13;21.60;99.80
20288;DHT22;10303;51.960;8.372;2023-08-08T15:07:39;21.60;99.30
20288;DHT22;10303;51.960;8.372;2023-08-08T15:10:06;21.50;99.90
20288;DHT22;10303;51.960;8.372;2023-08-08T15:12:36;21.60;99.90
20288;DHT22;10303;51.960;8.372;2023-08-08T15:15:02;21.80;99.90
20288;DHT22;10303;51.960;8.372;2023-08-08T15:17:31;21.90;99.90
20288;DHT22;10303;51.960;8.372;2023-08-08T15:20:00;22.00;99.90
20288;DHT22;10303;51.960;8.372;2023-08-08T15:22:27;22.10;98.50
20288;DHT22;10303;51.960;8.372;2023-08-08T15:24:53;22.00;99.00
20288;DHT22;10303;51.960;8.372;2023-08-08T15:27:19;21.80;99.00
20288;DHT22;10303;51.960;8.372;2023-08-08T15:29:45;21.90;98.80
20288;DHT22;10303;51.960;8.372;2023-08-08T15:32:12;21.70;99.10
20288;DHT22;10303;51.960;8.372;2023-08-08T15:34:38;21.70;98.90
20288;DHT22;10303;51.960;8.372;2023-08-08T15:37:04;21.50;99.90